createdAt,value
2023-03-16T00:01:11.229Z,99050.00
2023-03-16T00:03:40.641Z,99056.00
2023-03-16T00:06:10.076Z,99063.00
2023-03-16T00:08:40.191Z,99063.00
2023-03-16T00:11:09.401Z,99059.00
2023-03-16T00:13:38.629Z,99062.00
2023-03-16T00:16:08.659Z,99068.00
2023-03-16T00:18:42.190Z,99069.00
2023-03-16T00:21:14.252Z,99078.00
2023-03-16T00:23:43.610Z,99097.00
2023-03-16T00:26:14.041Z,99096.00
2023-03-16T00:28:43.853Z,99094.00
2023-03-16T00:31:13.903Z,99097.00
2023-03-16T00:33:44.368Z,99092.00
2023-03-16T00:36:14.624Z,99092.00
2023-03-16T00:38:49.223Z,99100.00
2023-03-16T00:41:18.722Z,99108.00
2023-03-16T00:43:49.819Z,99110.00
2023-03-16T00:46:19.765Z,99126.00
2023-03-16T00:48:49.748Z,99114.00
2023-03-16T00:51:21.085Z,99118.00
2023-03-16T00:53:51.065Z,99126.00
2023-03-16T00:56:20.857Z,99136.00
2023-03-16T00:58:50.164Z,99147.00
2023-03-16T01:01:22.120Z,99156.00
2023-03-16T01:03:52.184Z,99149.00
2023-03-16T01:06:24.182Z,99159.00
2023-03-16T01:08:54.550Z,99170.00
2023-03-16T01:11:25.052Z,99169.00
2023-03-16T01:13:55.399Z,99171.00
2023-03-16T01:16:24.733Z,99176.00
2023-03-16T01:18:54.656Z,99190.00
2023-03-16T01:21:24.773Z,99189.00
2023-03-16T01:23:54.815Z,99191.00
2023-03-16T01:26:26.181Z,99195.00
2023-03-16T01:28:55.939Z,99197.00
2023-03-16T01:31:25.254Z,99198.00
2023-03-16T01:33:54.535Z,99210.00
2023-03-16T01:36:24.426Z,99214.00
2023-03-16T01:38:53.820Z,99211.00
2023-03-16T01:41:23.217Z,99213.00
2023-03-16T01:43:52.960Z,99223.00
2023-03-16T01:46:31.122Z,99215.00
2023-03-16T01:49:13.540Z,99218.00
2023-03-16T01:51:53.928Z,99221.00
2023-03-16T01:54:31.347Z,99224.00
2023-03-16T01:57:23.400Z,99223.00
2023-03-16T02:00:11.514Z,99223.00
2023-03-16T02:02:44.652Z,99220.00
2023-03-16T02:05:53.766Z,99222.00
2023-03-16T02:08:30.206Z,99231.00
2023-03-16T02:11:01.849Z,99229.00
2023-03-16T02:13:33.983Z,99228.00
2023-03-16T02:16:04.457Z,99231.00
2023-03-16T02:18:34.983Z,99233.00
2023-03-16T02:21:58.062Z,99238.00
2023-03-16T02:24:30.758Z,99231.00
2023-03-16T02:27:47.285Z,99230.00
2023-03-16T02:30:19.582Z,99232.00
2023-03-16T02:32:54.730Z,99234.00
2023-03-16T02:35:24.933Z,99239.00
2023-03-16T02:37:57.087Z,99229.00
2023-03-16T02:40:39.636Z,99235.00
2023-03-16T02:43:25.760Z,99234.00
2023-03-16T02:46:09.601Z,99233.00
2023-03-16T02:48:48.486Z,99232.00
2023-03-16T02:51:19.305Z,99236.00
2023-03-16T02:53:48.675Z,99225.00
2023-03-16T02:56:18.296Z,99226.00
2023-03-16T02:58:47.551Z,99222.00
2023-03-16T03:01:26.120Z,99224.00
2023-03-16T03:03:59.281Z,99225.00
2023-03-16T03:06:43.875Z,99224.00
2023-03-16T03:09:20.167Z,99226.00
2023-03-16T03:11:57.743Z,99222.00
2023-03-16T03:14:34.312Z,99217.00
2023-03-16T03:17:06.377Z,99220.00
2023-03-16T03:19:40.333Z,99214.00
2023-03-16T03:22:30.812Z,99214.00
2023-03-16T03:24:59.990Z,99214.00
2023-03-16T03:27:33.228Z,99209.00
2023-03-16T03:30:02.586Z,99204.00
2023-03-16T03:32:32.239Z,99193.00
2023-03-16T03:35:02.020Z,99191.00
2023-03-16T03:37:31.227Z,99196.00
2023-03-16T03:40:00.326Z,99206.00
2023-03-16T03:42:29.495Z,99198.00
2023-03-16T03:44:58.623Z,99193.00
2023-03-16T03:47:27.776Z,99185.00
2023-03-16T03:49:56.964Z,99182.00
2023-03-16T03:52:26.198Z,99185.00
2023-03-16T03:54:55.320Z,99179.00
2023-03-16T03:57:24.680Z,99168.00
2023-03-16T03:59:53.844Z,99166.00
2023-03-16T04:02:23.177Z,99171.00
2023-03-16T04:04:52.477Z,99167.00
2023-03-16T04:07:21.869Z,99167.00
2023-03-16T04:09:50.983Z,99163.00
2023-03-16T04:12:20.176Z,99155.00
2023-03-16T04:14:49.503Z,99159.00
2023-03-16T04:17:18.869Z,99159.00
2023-03-16T04:19:48.596Z,99158.00
2023-03-16T04:22:18.199Z,99155.00
2023-03-16T04:24:47.366Z,99148.00
2023-03-16T04:27:16.438Z,99139.00
2023-03-16T04:29:45.571Z,99132.00
2023-03-16T04:32:14.882Z,99129.00
2023-03-16T04:34:44.794Z,99125.00
2023-03-16T04:37:14.359Z,99125.00
2023-03-16T04:39:43.409Z,99118.00
2023-03-16T04:42:13.402Z,99110.00
2023-03-16T04:44:45.109Z,99112.00
2023-03-16T04:47:16.378Z,99110.00
2023-03-16T04:49:45.921Z,99109.00
2023-03-16T04:52:15.072Z,99107.00
2023-03-16T04:54:44.652Z,99106.00
2023-03-16T04:57:13.892Z,99110.00
2023-03-16T04:59:43.050Z,99094.00
2023-03-16T05:02:12.595Z,99088.00
2023-03-16T05:04:41.855Z,99081.00
2023-03-16T05:07:11.036Z,99075.00
2023-03-16T05:09:42.770Z,99074.00
2023-03-16T05:12:12.408Z,99060.00
2023-03-16T05:14:41.562Z,99068.00
2023-03-16T05:17:10.898Z,99052.00
2023-03-16T05:19:40.031Z,99054.00
2023-03-16T05:22:09.400Z,99053.00
2023-03-16T05:24:39.538Z,99033.00
2023-03-16T05:27:08.775Z,99037.00
2023-03-16T05:29:38.011Z,99040.00
2023-03-16T05:32:07.685Z,99032.00
2023-03-16T05:34:36.800Z,99031.00
2023-03-16T05:37:05.983Z,99019.00
2023-03-16T05:39:35.399Z,99017.00
2023-03-16T05:42:05.990Z,99012.00
2023-03-16T05:44:35.738Z,99012.00
2023-03-16T05:47:05.134Z,99011.00
2023-03-16T05:49:34.363Z,99007.00
2023-03-16T05:52:03.651Z,99006.00
2023-03-16T05:54:32.799Z,99003.00
2023-03-16T05:57:01.978Z,99003.00
2023-03-16T05:59:31.223Z,98992.00
2023-03-16T06:02:00.388Z,98990.00
2023-03-16T06:04:29.621Z,98982.00
2023-03-16T06:06:59.022Z,98988.00
2023-03-16T06:09:29.212Z,98988.00
2023-03-16T06:11:58.400Z,98982.00
2023-03-16T06:14:27.565Z,98968.00
2023-03-16T06:16:56.644Z,98969.00
2023-03-16T06:19:25.772Z,98965.00
2023-03-16T06:21:54.994Z,98969.00
2023-03-16T06:24:24.148Z,98960.00
2023-03-16T06:26:54.036Z,98956.00
2023-03-16T06:29:23.221Z,98954.00
2023-03-16T06:31:53.498Z,98947.00
2023-03-16T06:34:23.604Z,98950.00
2023-03-16T06:36:52.675Z,98935.00
2023-03-16T06:39:22.453Z,98940.00
2023-03-16T06:41:51.639Z,98939.00
2023-03-16T06:44:20.772Z,98937.00
2023-03-16T06:46:50.356Z,98931.00
2023-03-16T06:49:19.498Z,98930.00
2023-03-16T06:51:48.611Z,98931.00
2023-03-16T06:54:17.989Z,98921.00
2023-03-16T06:56:47.163Z,98910.00
2023-03-16T06:59:16.284Z,98911.00
2023-03-16T07:01:46.123Z,98904.00
2023-03-16T07:04:15.394Z,98907.00
2023-03-16T07:06:44.658Z,98900.00
2023-03-16T07:09:14.595Z,98895.00
2023-03-16T07:11:44.351Z,98891.00
2023-03-16T07:14:13.444Z,98885.00
2023-03-16T07:16:42.691Z,98878.00
2023-03-16T07:19:12.528Z,98878.00
2023-03-16T07:21:43.012Z,98874.00
2023-03-16T07:24:13.873Z,98880.00
2023-03-16T07:26:44.147Z,98872.00
2023-03-16T07:29:14.906Z,98874.00
2023-03-16T07:31:44.300Z,98873.00
2023-03-16T07:34:14.059Z,98868.00
2023-03-16T07:36:43.141Z,98862.00
2023-03-16T07:39:15.274Z,98850.00
2023-03-16T07:41:44.993Z,98845.00
2023-03-16T07:44:15.188Z,98844.00
2023-03-16T07:46:44.784Z,98843.00
2023-03-16T07:49:14.358Z,98842.00
2023-03-16T07:51:43.527Z,98834.00
2023-03-16T07:54:12.717Z,98833.00
2023-03-16T07:56:49.241Z,98830.00
2023-03-16T07:59:20.859Z,98825.00
2023-03-16T08:01:50.256Z,98820.00
2023-03-16T08:04:19.569Z,98819.00
2023-03-16T08:06:48.894Z,98824.00
2023-03-16T08:09:18.336Z,98819.00
2023-03-16T08:11:47.474Z,98814.00
2023-03-16T08:14:16.582Z,98816.00
2023-03-16T08:16:45.701Z,98807.00
2023-03-16T08:19:14.927Z,98811.00
2023-03-16T08:22:00.393Z,98805.00
2023-03-16T08:24:32.069Z,98802.00
2023-03-16T08:27:02.120Z,98792.00
2023-03-16T08:29:31.345Z,98791.00
2023-03-16T08:32:01.061Z,98783.00
2023-03-16T08:34:31.178Z,98777.00
2023-03-16T08:37:01.275Z,98775.00
2023-03-16T08:39:31.103Z,98768.00
2023-03-16T08:42:00.320Z,98769.00
2023-03-16T08:44:29.526Z,98764.00
2023-03-16T08:46:58.684Z,98760.00
2023-03-16T08:49:29.979Z,98765.00
2023-03-16T08:51:59.194Z,98758.00
2023-03-16T08:54:28.355Z,98758.00
2023-03-16T08:56:57.641Z,98754.00
2023-03-16T08:59:30.092Z,98747.00
2023-03-16T09:02:01.425Z,98755.00
2023-03-16T09:04:31.462Z,98749.00
2023-03-16T09:07:08.691Z,98761.00
2023-03-16T09:09:39.117Z,98750.00
2023-03-16T09:12:09.484Z,98754.00
2023-03-16T09:14:39.408Z,98742.00
2023-03-16T09:17:09.525Z,98748.00
2023-03-16T09:19:50.619Z,98752.00
2023-03-16T09:22:22.179Z,98752.00
2023-03-16T09:24:52.186Z,98746.00
2023-03-16T09:27:21.777Z,98744.00
2023-03-16T09:29:51.618Z,98750.00
2023-03-16T09:32:21.671Z,98747.00
2023-03-16T09:34:51.587Z,98749.00
2023-03-16T09:37:20.877Z,98754.00
2023-03-16T09:39:51.830Z,98755.00
2023-03-16T09:43:15.416Z,98746.00
2023-03-16T09:46:12.929Z,98755.00
2023-03-16T09:48:43.239Z,98754.00
2023-03-16T09:51:39.655Z,98752.00
2023-03-16T09:54:35.610Z,98752.00
2023-03-16T09:57:12.648Z,98752.00
2023-03-16T09:59:41.877Z,98759.00
2023-03-16T10:02:42.081Z,98763.00
2023-03-16T10:05:18.559Z,98757.00
2023-03-16T10:08:17.982Z,98765.00
2023-03-16T10:11:16.292Z,98767.00
2023-03-16T10:14:21.699Z,98763.00
2023-03-16T10:17:13.079Z,98767.00
2023-03-16T10:19:55.784Z,98767.00
2023-03-16T10:22:35.819Z,98769.00
2023-03-16T10:25:32.309Z,98771.00
2023-03-16T10:28:01.913Z,98775.00
2023-03-16T10:30:38.342Z,98775.00
2023-03-16T10:33:35.253Z,98776.00
2023-03-16T10:36:16.612Z,98780.00
2023-03-16T10:38:56.376Z,98782.00
2023-03-16T10:41:34.105Z,98784.00
2023-03-16T10:44:14.482Z,98792.00
2023-03-16T10:46:52.069Z,98791.00
2023-03-16T10:49:40.445Z,98792.00
2023-03-16T10:52:47.861Z,98794.00
2023-03-16T10:55:33.584Z,98791.00
2023-03-16T10:58:03.134Z,98795.00
2023-03-16T11:00:39.497Z,98796.00
2023-03-16T11:03:29.894Z,98788.00
2023-03-16T11:06:05.370Z,98787.00
2023-03-16T11:08:42.385Z,98792.00
2023-03-16T11:11:33.498Z,98802.00
2023-03-16T11:14:05.788Z,98801.00
2023-03-16T11:17:04.148Z,98796.00
2023-03-16T11:19:52.619Z,98795.00
2023-03-16T11:22:31.182Z,98803.00
2023-03-16T11:25:36.431Z,98796.00
2023-03-16T11:28:45.136Z,98802.00
2023-03-16T11:31:41.581Z,98798.00
2023-03-16T11:34:29.268Z,98804.00
2023-03-16T11:37:52.684Z,98807.00
2023-03-16T11:40:59.123Z,98814.00
2023-03-16T11:43:53.793Z,98822.00
2023-03-16T11:46:31.797Z,98818.00
2023-03-16T11:49:38.015Z,98816.00
2023-03-16T11:52:47.566Z,98817.00
2023-03-16T11:55:31.632Z,98826.00
2023-03-16T11:58:24.479Z,98828.00
2023-03-16T12:08:54.940Z,98833.00
2023-03-16T12:11:48.809Z,98832.00
2023-03-16T12:14:50.003Z,98837.00
2023-03-16T12:17:45.074Z,98836.00
2023-03-16T12:20:35.778Z,98848.00
2023-03-16T12:23:33.230Z,98847.00
2023-03-16T12:35:30.044Z,98862.00
2023-03-16T12:38:36.472Z,98860.00
2023-03-16T12:41:50.565Z,98867.00
2023-03-16T12:45:02.584Z,98871.00
2023-03-16T12:51:11.778Z,98880.00
2023-03-16T12:54:07.770Z,98884.00
2023-03-16T12:56:58.096Z,98874.00
2023-03-16T12:59:47.028Z,98877.00
2023-03-16T13:02:33.655Z,98883.00
2023-03-16T13:05:22.594Z,98885.00
2023-03-16T13:14:14.172Z,98889.00
2023-03-16T13:16:53.352Z,98894.00
2023-03-16T13:19:42.974Z,98892.00
2023-03-16T13:22:48.947Z,98897.00
2023-03-16T13:25:45.663Z,98908.00
2023-03-16T13:28:28.230Z,98905.00
2023-03-16T13:30:58.038Z,98900.00
2023-03-16T13:33:32.614Z,98903.00
2023-03-16T13:36:03.376Z,98916.00
2023-03-16T13:38:32.829Z,98913.00
2023-03-16T13:41:16.066Z,98908.00
2023-03-16T13:44:02.853Z,98917.00
2023-03-16T13:46:32.819Z,98918.00
2023-03-16T13:49:09.320Z,98921.00
2023-03-16T13:51:50.679Z,98933.00
2023-03-16T13:54:33.753Z,98943.00
2023-03-16T13:57:10.728Z,98948.00
2023-03-16T13:59:44.642Z,98953.00
2023-03-16T14:02:26.949Z,98952.00
2023-03-16T14:05:14.173Z,98965.00
2023-03-16T14:07:46.329Z,98974.00
2023-03-16T14:10:18.128Z,98980.00
2023-03-16T14:13:12.487Z,98976.00
2023-03-16T14:15:42.746Z,98975.00
2023-03-16T14:18:23.960Z,98977.00
2023-03-16T14:20:57.855Z,98990.00
2023-03-16T14:23:38.649Z,98996.00
2023-03-16T14:26:16.064Z,99001.00
2023-03-16T14:29:28.774Z,98999.00
2023-03-16T14:32:08.248Z,99009.00
2023-03-16T14:34:43.034Z,99007.00
2023-03-16T14:37:14.605Z,99012.00
2023-03-16T14:39:44.454Z,99013.00
2023-03-16T14:42:32.924Z,99008.00
2023-03-16T14:45:10.125Z,99006.00
2023-03-16T14:47:49.737Z,99013.00
2023-03-16T14:50:31.009Z,99011.00
2023-03-16T14:53:00.863Z,99021.00
2023-03-16T14:55:31.593Z,99021.00
2023-03-16T14:58:01.072Z,99011.00
2023-03-16T15:00:36.999Z,99015.00
2023-03-16T15:03:18.567Z,99022.00
2023-03-16T15:05:58.385Z,99017.00
2023-03-16T15:08:34.853Z,99024.00
2023-03-16T15:11:07.526Z,99022.00
2023-03-16T15:13:43.083Z,99011.00
2023-03-16T15:16:15.279Z,99012.00
2023-03-16T15:18:45.266Z,99013.00
2023-03-16T15:21:18.291Z,99019.00
2023-03-16T15:23:48.249Z,99022.00
2023-03-16T15:26:25.271Z,99025.00
2023-03-16T15:28:55.577Z,99022.00
2023-03-16T15:31:25.116Z,99020.00
2023-03-16T15:33:54.466Z,99036.00
2023-03-16T15:36:25.241Z,99021.00
2023-03-16T15:38:56.670Z,99020.00
2023-03-16T15:41:32.425Z,99018.00
2023-03-16T15:44:14.936Z,99016.00
2023-03-16T15:46:50.177Z,99018.00
2023-03-16T15:49:19.455Z,99015.00
2023-03-16T15:51:48.669Z,99013.00
2023-03-16T15:54:18.032Z,99018.00
2023-03-16T15:56:54.250Z,99020.00
2023-03-16T15:59:27.666Z,99027.00
2023-03-16T16:01:57.066Z,99023.00
2023-03-16T16:04:27.279Z,99015.00
2023-03-16T16:06:57.784Z,99008.00
2023-03-16T16:09:28.637Z,99010.00
2023-03-16T16:11:58.270Z,99004.00
2023-03-16T16:14:29.032Z,99008.00
2023-03-16T16:16:58.264Z,99010.00
2023-03-16T16:19:29.527Z,99011.00
2023-03-16T16:21:58.964Z,99011.00
2023-03-16T16:24:28.778Z,99007.00
2023-03-16T16:26:58.380Z,99006.00
2023-03-16T16:29:34.858Z,98995.00
2023-03-16T16:32:04.234Z,98990.00
2023-03-16T16:34:34.480Z,98983.00
2023-03-16T16:37:04.344Z,98986.00
2023-03-16T16:39:33.497Z,98977.00
2023-03-16T16:42:02.899Z,98987.00
2023-03-16T16:44:35.266Z,98982.00
2023-03-16T16:47:18.599Z,98975.00
2023-03-16T16:49:47.795Z,98977.00
2023-03-16T16:52:21.842Z,98976.00
2023-03-16T16:54:50.996Z,98971.00
2023-03-16T16:57:21.781Z,98970.00
2023-03-16T16:59:51.452Z,98967.00
2023-03-16T17:02:44.901Z,98972.00
2023-03-16T17:05:32.676Z,98968.00
2023-03-16T17:08:05.098Z,98967.00
2023-03-16T17:10:35.938Z,98971.00
2023-03-16T17:13:07.310Z,98960.00
2023-03-16T17:15:38.034Z,98965.00
2023-03-16T17:18:15.896Z,98963.00
2023-03-16T17:20:45.943Z,98961.00
2023-03-16T17:23:35.928Z,98961.00
2023-03-16T17:26:28.983Z,98949.00
2023-03-16T17:29:07.192Z,98950.00
2023-03-16T17:31:42.829Z,98950.00
2023-03-16T17:34:29.915Z,98946.00
2023-03-16T17:36:59.097Z,98940.00
2023-03-16T17:39:31.783Z,98933.00
2023-03-16T17:42:14.495Z,98933.00
2023-03-16T17:44:49.020Z,98918.00
2023-03-16T17:47:28.609Z,98921.00
2023-03-16T17:49:58.048Z,98913.00
2023-03-16T17:52:30.790Z,98914.00
2023-03-16T17:55:00.008Z,98912.00
2023-03-16T17:57:35.112Z,98907.00
2023-03-16T18:00:10.071Z,98914.00
2023-03-16T18:02:56.989Z,98914.00
2023-03-16T18:05:36.683Z,98906.00
2023-03-16T18:08:23.679Z,98909.00
2023-03-16T18:11:04.409Z,98904.00
2023-03-16T18:13:41.035Z,98900.00
2023-03-16T18:16:16.256Z,98906.00
2023-03-16T18:18:47.877Z,98894.00
2023-03-16T18:21:25.449Z,98890.00
2023-03-16T18:23:55.896Z,98888.00
2023-03-16T18:26:25.748Z,98889.00
2023-03-16T18:28:54.997Z,98887.00
2023-03-16T18:31:29.381Z,98877.00
2023-03-16T18:34:03.520Z,98877.00
2023-03-16T18:36:39.548Z,98874.00
2023-03-16T18:39:19.886Z,98869.00
2023-03-16T18:41:52.317Z,98866.00
2023-03-16T18:44:31.115Z,98862.00
2023-03-16T18:47:05.239Z,98853.00
2023-03-16T18:49:42.457Z,98853.00
2023-03-16T18:52:25.560Z,98855.00
2023-03-16T18:54:56.598Z,98854.00
2023-03-16T18:57:29.221Z,98846.00
2023-03-16T18:59:58.373Z,98850.00
2023-03-16T19:02:42.934Z,98848.00
2023-03-16T19:05:23.214Z,98849.00
2023-03-16T19:07:54.340Z,98857.00
2023-03-16T19:10:39.524Z,98847.00
2023-03-16T19:13:22.421Z,98842.00
2023-03-16T19:15:54.725Z,98837.00
2023-03-16T19:18:27.032Z,98833.00
2023-03-16T19:20:57.728Z,98833.00
2023-03-16T19:23:37.542Z,98835.00
2023-03-16T19:26:07.307Z,98842.00
2023-03-16T19:28:40.905Z,98835.00
2023-03-16T19:31:27.154Z,98820.00
2023-03-16T19:33:57.782Z,98827.00
2023-03-16T19:36:33.361Z,98826.00
2023-03-16T19:39:02.794Z,98826.00
2023-03-16T19:41:36.716Z,98825.00
2023-03-16T19:44:23.238Z,98827.00
2023-03-16T19:46:53.285Z,98820.00
2023-03-16T19:49:28.901Z,98813.00
2023-03-16T19:51:58.890Z,98807.00
2023-03-16T19:54:34.906Z,98800.00
2023-03-16T19:57:15.338Z,98805.00
2023-03-16T19:59:49.162Z,98804.00
2023-03-16T20:02:48.421Z,98816.00
2023-03-16T20:05:26.213Z,98806.00
2023-03-16T20:07:59.241Z,98810.00
2023-03-16T20:10:33.704Z,98810.00
2023-03-16T20:13:03.835Z,98806.00
2023-03-16T20:15:35.295Z,98801.00
2023-03-16T20:18:05.954Z,98795.00
2023-03-16T20:20:36.114Z,98786.00
2023-03-16T20:23:19.690Z,98781.00
2023-03-16T20:25:50.744Z,98780.00
2023-03-16T20:28:51.479Z,98781.00
2023-03-16T20:31:32.228Z,98773.00
2023-03-16T20:34:02.680Z,98776.00
2023-03-16T20:36:33.018Z,98770.00
2023-03-16T20:39:07.305Z,98775.00
2023-03-16T20:41:38.532Z,98769.00
2023-03-16T20:44:14.514Z,98778.00
2023-03-16T20:46:53.021Z,98767.00
2023-03-16T20:49:27.782Z,98765.00
2023-03-16T20:52:00.769Z,98772.00
2023-03-16T20:54:30.842Z,98782.00
2023-03-16T20:57:02.126Z,98776.00
2023-03-16T20:59:31.660Z,98783.00
2023-03-16T21:02:03.818Z,98788.00
2023-03-16T21:04:34.463Z,98798.00
2023-03-16T21:07:09.763Z,98794.00
2023-03-16T21:09:42.107Z,98783.00
2023-03-16T21:12:35.389Z,98781.00
2023-03-16T21:15:17.454Z,98794.00
2023-03-16T21:17:48.774Z,98791.00
2023-03-16T21:20:23.352Z,98796.00
2023-03-16T21:22:53.007Z,98798.00
2023-03-16T21:25:32.817Z,98799.00
2023-03-16T21:28:06.520Z,98803.00
2023-03-16T21:30:50.227Z,98803.00
2023-03-16T21:33:39.437Z,98808.00
2023-03-16T21:36:24.006Z,98805.00
2023-03-16T21:38:55.918Z,98806.00
2023-03-16T21:41:25.274Z,98812.00
2023-03-16T21:43:58.637Z,98808.00
2023-03-16T21:46:32.933Z,98807.00
2023-03-16T21:49:03.667Z,98808.00
2023-03-16T21:51:34.625Z,98816.00
2023-03-16T21:54:05.893Z,98816.00
2023-03-16T21:56:37.032Z,98821.00
2023-03-16T21:59:06.251Z,98826.00
2023-03-16T22:01:54.398Z,98822.00
2023-03-16T22:04:29.026Z,98820.00
2023-03-16T22:06:58.476Z,98826.00
2023-03-16T22:09:40.026Z,98834.00
2023-03-16T22:12:15.974Z,98826.00
2023-03-16T22:14:45.261Z,98834.00
2023-03-16T22:17:23.416Z,98831.00
2023-03-16T22:19:53.056Z,98841.00
2023-03-16T22:22:22.308Z,98847.00
2023-03-16T22:24:51.604Z,98849.00
2023-03-16T22:27:27.191Z,98852.00
2023-03-16T22:30:01.120Z,98847.00
2023-03-16T22:32:31.302Z,98852.00
2023-03-16T22:35:04.040Z,98854.00
2023-03-16T22:37:33.409Z,98862.00
2023-03-16T22:40:04.889Z,98859.00
2023-03-16T22:42:41.394Z,98858.00
2023-03-16T22:45:28.370Z,98865.00
2023-03-16T22:48:00.451Z,98869.00
2023-03-16T22:50:35.250Z,98875.00
2023-03-16T22:53:09.901Z,98888.00
2023-03-16T22:55:41.960Z,98891.00
2023-03-16T22:58:30.455Z,98903.00
2023-03-16T23:01:31.695Z,98907.00
2023-03-16T23:04:03.169Z,98915.00
2023-03-16T23:06:35.001Z,98929.00
2023-03-16T23:09:06.594Z,98917.00
2023-03-16T23:11:40.234Z,98941.00
2023-03-16T23:14:21.297Z,98945.00
2023-03-16T23:16:57.023Z,98944.00
2023-03-16T23:19:37.062Z,98958.00
2023-03-16T23:22:08.676Z,98955.00
2023-03-16T23:24:38.321Z,98967.00
2023-03-16T23:27:20.342Z,98978.00
2023-03-16T23:29:50.674Z,98980.00
2023-03-16T23:32:20.875Z,98984.00
2023-03-16T23:34:49.990Z,98995.00
2023-03-16T23:37:19.173Z,98990.00
2023-03-16T23:39:48.281Z,98993.00
2023-03-16T23:42:17.895Z,98998.00
2023-03-16T23:44:47.042Z,99006.00
2023-03-16T23:47:16.263Z,99003.00
2023-03-16T23:49:45.589Z,98998.00
2023-03-16T23:52:15.511Z,99005.00
2023-03-16T23:54:51.182Z,99008.00
2023-03-16T23:57:21.335Z,99010.00
2023-03-16T23:59:50.500Z,99011.00
